Time;durP1;ratioP1;P1;durP2;ratioP2;P2;SDS_P1;SDS_P2;PMS_P1;PMS_P2;Temp;Humidity;BMP_temperature;BMP_pressure;BME280_temperature;BME280_humidity;BME280_pressure;Samples;Min_cycle;Max_cycle;Signal;HPM_P1;HPM_P2
2022/05/26 00:02:03;;;;;;;16.25;3.22;;;13.30;99.90;;;;;;5036834;28;20588;-56
2022/05/26 00:04:29;;;;;;;7.20;1.40;;;13.30;99.90;;;;;;5044180;28;20060;-54
2022/05/26 00:06:56;;;;;;;12.32;2.15;;;13.20;99.90;;;;;;5048627;28;20064;-60
2022/05/26 00:09:23;;;;;;;10.45;2.13;;;13.20;99.90;;;;;;5048840;28;20127;-56
2022/05/26 00:11:50;;;;;;;12.40;2.22;;;13.20;99.90;;;;;;5049969;28;20696;-56
2022/05/26 00:14:17;;;;;;;13.13;2.28;;;13.10;99.90;;;;;;5049740;28;20122;-54
2022/05/26 00:16:45;;;;;;;9.40;1.77;;;13.10;99.90;;;;;;5049410;28;20123;-55
2022/05/26 00:19:16;;;;;;;11.10;2.38;;;13.10;99.90;;;;;;5040018;28;20052;-54
2022/05/26 00:21:43;;;;;;;15.55;2.33;;;13.10;99.90;;;;;;5040386;28;20237;-56
2022/05/26 00:24:10;;;;;;;11.00;2.28;;;13.10;99.90;;;;;;5045247;28;20098;-54
2022/05/26 00:26:36;;;;;;;10.88;1.83;;;13.00;99.90;;;;;;5040938;28;20068;-55
2022/05/26 00:29:03;;;;;;;13.43;1.80;;;13.00;99.90;;;;;;5049751;28;20137;-57
2022/05/26 00:31:30;;;;;;;10.18;2.42;;;13.10;99.90;;;;;;5049741;28;20095;-57
2022/05/26 00:33:57;;;;;;;19.25;2.60;;;13.10;99.90;;;;;;5049212;28;20073;-57
2022/05/26 00:36:41;;;;;;;21.45;2.75;;;13.00;99.90;;;;;;5049189;28;20060;-55
2022/05/26 00:39:16;;;;;;;12.05;2.22;;;13.10;99.90;;;;;;5049599;28;20098;-57
2022/05/26 00:41:49;;;;;;;10.55;2.08;;;13.00;99.90;;;;;;5049464;28;20095;-57
2022/05/26 00:44:15;;;;;;;11.02;2.90;;;13.00;99.90;;;;;;5048024;28;20467;-56
2022/05/26 00:46:45;;;;;;;15.13;2.33;;;12.90;99.90;;;;;;5044113;28;20072;-55
2022/05/26 00:49:18;;;;;;;15.02;2.40;;;12.90;99.90;;;;;;5034843;28;20114;-54
2022/05/26 00:51:45;;;;;;;13.05;2.47;;;12.90;99.90;;;;;;5047346;28;20136;-55
2022/05/26 00:54:14;;;;;;;11.73;2.20;;;12.90;99.90;;;;;;5028001;28;20073;-54
2022/05/26 00:56:49;;;;;;;14.02;2.65;;;12.80;99.90;;;;;;5033018;28;20132;-54
2022/05/26 00:59:39;;;;;;;9.35;2.83;;;12.90;99.90;;;;;;5046072;28;20088;-56
2022/05/26 01:02:06;;;;;;;9.23;2.00;;;12.80;99.90;;;;;;5041322;28;20073;-55
2022/05/26 01:04:41;;;;;;;9.00;1.83;;;12.80;99.90;;;;;;5047265;28;20500;-57
2022/05/26 01:07:15;;;;;;;9.55;2.42;;;12.80;99.90;;;;;;5047344;28;20110;-54
2022/05/26 01:09:42;;;;;;;11.18;2.40;;;12.80;99.90;;;;;;5048691;28;20147;-52
2022/05/26 01:12:08;;;;;;;13.52;2.72;;;12.70;99.90;;;;;;5048601;28;20132;-54
2022/05/26 01:14:39;;;;;;;12.73;4.60;;;12.70;99.90;;;;;;5048553;28;20085;-54
2022/05/26 01:17:14;;;;;;;8.05;1.73;;;12.80;99.90;;;;;;5043030;28;20164;-53
2022/05/26 01:19:59;;;;;;;14.98;2.20;;;12.80;99.90;;;;;;5043761;28;20049;-54
2022/05/26 01:22:49;;;;;;;13.30;3.05;;;12.80;99.90;;;;;;5061488;28;20139;-52
2022/05/26 01:25:40;;;;;;;19.40;2.70;;;12.70;99.90;;;;;;4699750;28;10000466;-54
2022/05/26 01:28:36;;;;;;;14.48;2.15;;;12.70;99.90;;;;;;5059703;28;20092;-55
2022/05/26 01:31:24;;;;;;;17.92;3.45;;;12.70;99.90;;;;;;5019289;28;20128;-55
2022/05/26 01:34:07;;;;;;;13.57;3.25;;;12.60;99.90;;;;;;5039571;28;20053;-56
2022/05/26 01:36:42;;;;;;;15.82;3.53;;;12.60;99.90;;;;;;5041448;28;20136;-56
2022/05/26 01:39:46;;;;;;;12.90;2.50;;;12.60;99.90;;;;;;5028500;28;20050;-56
2022/05/26 01:42:21;;;;;;;;;;;12.60;99.90;;;;;;5045384;28;20051;-56
2022/05/26 01:45:05;;;;;;;12.23;2.17;;;12.60;99.90;;;;;;5048306;28;19968;-55
2022/05/26 01:47:54;;;;;;;;;;;12.60;99.90;;;;;;5046953;28;20128;-59
2022/05/26 01:50:31;;;;;;;11.68;3.08;;;12.60;99.90;;;;;;5047780;28;20443;-52
2022/05/26 01:53:19;;;;;;;12.93;2.67;;;12.50;99.90;;;;;;5046412;28;20127;-54
2022/05/26 01:56:10;;;;;;;14.45;2.50;;;12.60;99.90;;;;;;5048076;28;20132;-55
2022/05/26 01:58:48;;;;;;;7.70;2.28;;;12.50;99.90;;;;;;5046643;28;20162;-56
2022/05/26 02:01:24;;;;;;;15.13;2.20;;;12.50;99.90;;;;;;5039190;28;20504;-55
2022/05/26 02:03:51;;;;;;;16.88;2.13;;;12.50;99.90;;;;;;5019303;28;20061;-56
2022/05/26 02:06:42;;;;;;;14.15;2.28;;;12.50;99.90;;;;;;5028183;28;20061;-55
2022/05/26 02:09:17;;;;;;;11.15;1.92;;;12.50;99.90;;;;;;5053992;28;20272;-54
2022/05/26 02:12:03;;;;;;;14.25;3.30;;;12.50;99.90;;;;;;5026953;28;20053;-56
2022/05/26 02:14:45;;;;;;;7.43;2.20;;;12.50;99.90;;;;;;5039603;28;20119;-57
2022/05/26 02:17:31;;;;;;;11.30;2.30;;;12.40;99.90;;;;;;5029186;28;20132;-56
2022/05/26 02:20:11;;;;;;;10.40;2.70;;;12.40;99.90;;;;;;5035978;28;20049;-56
2022/05/26 02:23:36;;;;;;;9.13;2.53;;;12.40;99.90;;;;;;5046368;28;20124;-55
2022/05/26 02:26:03;;;;;;;15.40;1.75;;;12.40;99.90;;;;;;5005852;28;20095;-53
2022/05/26 02:29:51;;;;;;;14.50;2.03;;;12.30;99.90;;;;;;5046502;28;20049;-54
2022/05/26 02:31:18;;;;;;;17.55;2.20;;;12.30;99.90;;;;;;5041548;28;20045;-57
2022/05/26 02:33:45;;;;;;;9.80;2.92;;;12.40;99.90;;;;;;5074541;28;20049;-56
2022/05/26 02:36:12;;;;;;;12.15;2.10;;;12.30;99.90;;;;;;5042462;28;20128;-56
2022/05/26 02:38:39;;;;;;;8.30;2.15;;;12.30;99.90;;;;;;5030842;28;20103;-59
2022/05/26 02:41:05;;;;;;;7.45;1.55;;;12.20;99.90;;;;;;5027767;28;20140;-57
2022/05/26 02:43:32;;;;;;;12.45;3.75;;;12.20;99.90;;;;;;5027919;28;20132;-57
2022/05/26 02:46:09;;;;;;;16.30;2.67;;;12.20;99.90;;;;;;5034670;28;20049;-58
2022/05/26 02:49:09;;;;;;;7.47;1.80;;;12.20;99.90;;;;;;5036735;28;20053;-53
2022/05/26 02:51:42;;;;;;;8.63;2.13;;;12.10;99.90;;;;;;5036068;28;20164;-56
2022/05/26 02:54:21;;;;;;;10.33;2.37;;;12.10;99.90;;;;;;5033847;28;20089;-56
2022/05/26 02:57:26;;;;;;;15.05;2.38;;;12.10;99.90;;;;;;5029795;28;20079;-56
2022/05/26 03:00:15;;;;;;;12.80;2.42;;;12.10;99.90;;;;;;5040744;28;20080;-54
2022/05/26 03:02:52;;;;;;;12.45;1.85;;;12.10;99.90;;;;;;5026980;28;20085;-56
2022/05/26 03:05:24;;;;;;;19.35;3.15;;;12.10;99.90;;;;;;5062753;28;20111;-57
2022/05/26 03:07:54;;;;;;;15.60;2.95;;;12.10;99.90;;;;;;5044904;28;20221;-56
2022/05/26 03:10:28;;;;;;;7.68;2.10;;;12.00;99.90;;;;;;5041245;28;20555;-55
2022/05/26 03:12:56;;;;;;;10.60;2.60;;;12.00;99.90;;;;;;5045886;28;20088;-57
2022/05/26 03:15:23;;;;;;;11.75;2.13;;;12.00;99.90;;;;;;5047176;28;20084;-55
2022/05/26 03:17:50;;;;;;;11.20;1.80;;;12.00;99.90;;;;;;5041187;28;20514;-53
2022/05/26 03:20:16;;;;;;;9.82;2.08;;;12.00;99.90;;;;;;5040278;28;20060;-57
2022/05/26 03:22:43;;;;;;;9.45;2.88;;;12.00;99.90;;;;;;5030777;28;20202;-56
2022/05/26 03:25:10;;;;;;;11.27;1.67;;;12.00;99.90;;;;;;5027383;28;20799;-56
2022/05/26 03:27:36;;;;;;;14.90;2.40;;;12.00;99.90;;;;;;5037595;28;20076;-49
2022/05/26 03:30:04;;;;;;;7.50;1.95;;;11.90;99.90;;;;;;5046831;28;20088;-54
2022/05/26 03:32:31;;;;;;;4.50;1.73;;;12.00;99.90;;;;;;5027225;28;20049;-52
2022/05/26 03:43:15;;;;;;;13.25;2.28;;;12.00;99.90;;;;;;5027457;28;20049;-55
2022/05/26 03:45:42;;;;;;;8.07;1.80;;;11.90;99.90;;;;;;5040398;28;20040;-53
2022/05/26 03:48:09;;;;;;;11.55;2.20;;;11.90;99.90;;;;;;5048792;28;20131;-56
2022/05/26 03:50:36;;;;;;;10.35;2.90;;;11.90;99.90;;;;;;5049701;28;20103;-55
2022/05/26 03:53:03;;;;;;;7.68;2.22;;;11.90;99.90;;;;;;5048953;28;20476;-56
2022/05/26 03:55:30;;;;;;;13.57;2.10;;;11.90;99.90;;;;;;5050258;28;20096;-56
2022/05/26 03:57:59;;;;;;;9.43;3.25;;;11.90;99.90;;;;;;5050447;28;20124;-56
2022/05/26 04:00:25;;;;;;;12.73;2.33;;;11.90;99.90;;;;;;5050022;28;20136;-56
2022/05/26 04:02:52;;;;;;;13.77;2.15;;;11.90;99.90;;;;;;5044331;28;20393;-55
2022/05/26 04:05:19;;;;;;;8.23;2.60;;;11.90;99.90;;;;;;5029756;28;20097;-55
2022/05/26 04:07:46;;;;;;;9.10;3.25;;;11.90;99.90;;;;;;5030616;28;20085;-55
2022/05/26 04:10:13;;;;;;;10.07;2.03;;;11.90;99.90;;;;;;5030787;28;20081;-58
2022/05/26 04:12:42;;;;;;;11.43;1.98;;;11.90;99.90;;;;;;5030276;28;20100;-55
2022/05/26 04:15:09;;;;;;;7.53;1.58;;;11.90;99.90;;;;;;5030583;28;20508;-56
2022/05/26 04:17:36;;;;;;;14.77;2.88;;;11.90;99.90;;;;;;5044473;28;20069;-55
2022/05/26 04:20:05;;;;;;;11.65;1.98;;;11.90;99.90;;;;;;5045114;28;20111;-54
2022/05/26 04:22:31;;;;;;;11.73;2.10;;;11.90;99.90;;;;;;5049927;28;20476;-53
2022/05/26 04:24:58;;;;;;;15.07;2.75;;;11.90;99.90;;;;;;5030231;28;20107;-54
2022/05/26 04:27:29;;;;;;;9.90;2.60;;;11.90;99.90;;;;;;5048002;28;20140;-54
2022/05/26 04:29:56;;;;;;;12.52;2.40;;;11.90;99.90;;;;;;5050392;28;20110;-53
2022/05/26 04:32:23;;;;;;;7.45;2.25;;;11.90;99.90;;;;;;5049924;28;20121;-58
2022/05/26 04:34:50;;;;;;;11.18;2.25;;;11.90;99.90;;;;;;5050005;28;20084;-55
2022/05/26 04:37:18;;;;;;;14.00;2.53;;;11.90;99.90;;;;;;5048359;28;20140;-56
2022/05/26 04:39:45;;;;;;;12.10;2.20;;;11.90;99.90;;;;;;5049016;28;20136;-55
2022/05/26 04:42:13;;;;;;;12.68;3.13;;;11.90;99.90;;;;;;5050000;28;20523;-56
2022/05/26 04:44:41;;;;;;;14.88;1.65;;;11.90;99.90;;;;;;5049927;28;20117;-59
2022/05/26 04:47:11;;;;;;;10.10;2.33;;;11.90;99.90;;;;;;5041260;28;20088;-55
2022/05/26 04:49:38;;;;;;;10.57;3.13;;;12.00;99.90;;;;;;5034741;28;20114;-57
2022/05/26 04:52:10;;;;;;;14.88;2.42;;;12.00;99.90;;;;;;5040419;28;20084;-52
2022/05/26 04:54:37;;;;;;;9.07;2.00;;;12.10;99.90;;;;;;5038038;28;20102;-55
2022/05/26 04:57:05;;;;;;;13.13;2.33;;;12.10;99.90;;;;;;5046044;28;20076;-56
2022/05/26 04:59:32;;;;;;;9.60;2.22;;;12.10;99.90;;;;;;5038138;28;20480;-57
2022/05/26 05:02:00;;;;;;;10.23;2.70;;;12.10;99.90;;;;;;5032309;28;20056;-55
2022/05/26 05:04:27;;;;;;;9.30;2.22;;;12.20;99.90;;;;;;4687472;28;10000012;-57
2022/05/26 05:06:55;;;;;;;13.32;3.65;;;12.30;99.90;;;;;;5046115;28;20060;-57
2022/05/26 05:09:23;;;;;;;10.43;3.30;;;12.20;99.90;;;;;;5047578;28;20500;-56
2022/05/26 05:11:51;;;;;;;9.98;2.88;;;12.30;99.90;;;;;;5048895;28;20067;-55
2022/05/26 05:14:18;;;;;;;9.40;2.45;;;12.40;99.90;;;;;;5049105;28;20088;-56
2022/05/26 05:16:45;;;;;;;10.45;2.72;;;12.40;99.90;;;;;;5048971;28;20049;-55
2022/05/26 05:19:17;;;;;;;13.20;2.75;;;12.40;99.90;;;;;;5047414;28;20447;-57
2022/05/26 05:21:56;;;;;;;7.07;2.40;;;12.50;99.90;;;;;;5042503;28;20123;-57
2022/05/26 05:24:29;;;;;;;16.38;4.53;;;12.50;99.90;;;;;;5035375;28;20073;-56
2022/05/26 05:26:59;;;;;;;16.45;3.55;;;12.60;99.90;;;;;;5040885;28;20085;-57
2022/05/26 05:29:26;;;;;;;12.07;2.22;;;12.70;99.90;;;;;;5045604;28;20169;-57
2022/05/26 05:31:58;;;;;;;9.93;3.45;;;12.70;99.90;;;;;;5033905;28;20636;-57
2022/05/26 05:34:29;;;;;;;14.40;2.55;;;12.80;99.90;;;;;;5060307;28;20104;-56
2022/05/26 05:36:56;;;;;;;12.52;2.88;;;12.80;99.90;;;;;;5031361;28;20050;-58
2022/05/26 05:39:24;;;;;;;12.00;2.28;;;12.90;99.90;;;;;;5036198;28;20095;-57
2022/05/26 05:41:51;;;;;;;12.40;2.72;;;13.00;99.90;;;;;;5043981;28;20085;-56
2022/05/26 05:44:18;;;;;;;10.18;2.53;;;13.10;99.90;;;;;;5043447;28;20045;-56
2022/05/26 05:46:54;;;;;;;15.52;2.20;;;13.10;99.90;;;;;;5036351;28;20041;-55
2022/05/26 05:49:22;;;;;;;10.13;2.10;;;13.20;99.90;;;;;;5036314;28;20059;-55
2022/05/26 05:51:49;;;;;;;15.00;3.55;;;13.30;99.90;;;;;;5034395;28;20049;-55
2022/05/26 05:54:15;;;;;;;7.78;2.38;;;13.30;99.90;;;;;;5044838;28;20053;-56
2022/05/26 05:56:42;;;;;;;10.45;2.00;;;13.40;99.90;;;;;;5044721;28;20053;-55
2022/05/26 05:59:09;;;;;;;14.65;2.05;;;13.40;99.90;;;;;;5044420;28;20061;-56
2022/05/26 06:01:36;;;;;;;8.55;2.05;;;13.50;99.90;;;;;;5037501;28;20069;-57
2022/05/26 06:04:03;;;;;;;9.98;1.75;;;13.50;99.90;;;;;;5039671;28;20049;-55
2022/05/26 06:06:48;;;;;;;10.63;1.95;;;13.60;99.90;;;;;;5043721;28;20056;-56
2022/05/26 06:09:16;;;;;;;13.02;4.13;;;13.60;99.90;;;;;;5044968;28;20543;-58
2022/05/26 06:11:43;;;;;;;13.02;2.05;;;13.70;99.90;;;;;;5037025;28;20121;-56
2022/05/26 06:14:10;;;;;;;8.95;1.77;;;13.70;99.90;;;;;;5039703;28;20579;-56
2022/05/26 06:16:37;;;;;;;13.23;2.30;;;13.80;99.90;;;;;;5028316;28;20103;-55
2022/05/26 06:19:04;;;;;;;8.88;1.73;;;13.90;99.90;;;;;;5036542;28;20066;-54
2022/05/26 06:21:31;;;;;;;13.07;2.15;;;14.00;99.90;;;;;;5044731;28;20092;-53
2022/05/26 06:23:58;;;;;;;10.65;2.22;;;13.90;99.90;;;;;;5046739;28;20147;-53
2022/05/26 06:26:26;;;;;;;9.38;1.88;;;14.00;99.90;;;;;;5047571;28;20507;-56
2022/05/26 06:31:38;;;;;;;11.50;2.20;;;14.20;99.90;;;;;;5034361;28;20140;-55
2022/05/26 06:39:35;;;;;;;8.85;3.15;;;14.20;99.90;;;;;;5032140;28;20064;-55
2022/05/26 06:42:05;;;;;;;10.23;2.03;;;14.30;99.90;;;;;;5026330;28;20127;-56
2022/05/26 06:44:38;;;;;;;14.13;3.17;;;14.40;99.90;;;;;;5026919;28;20136;-56
2022/05/26 06:47:10;;;;;;;13.13;2.83;;;14.50;99.90;;;;;;5038524;28;20134;-55
2022/05/26 06:49:38;;;;;;;10.95;1.73;;;14.60;99.90;;;;;;5046882;28;20068;-55
2022/05/26 06:52:05;;;;;;;9.88;2.63;;;14.60;99.90;;;;;;5046478;28;20049;-56
2022/05/26 06:54:33;;;;;;;8.70;1.92;;;14.60;99.90;;;;;;5046134;28;20132;-55
2022/05/26 06:57:00;;;;;;;9.15;1.83;;;14.60;99.90;;;;;;5045034;28;20064;-54
2022/05/26 06:59:27;;;;;;;15.63;3.13;;;14.70;99.90;;;;;;5044838;28;20484;-55
2022/05/26 07:01:54;;;;;;;9.38;1.60;;;14.70;99.90;;;;;;5045783;28;20076;-57
2022/05/26 07:04:21;;;;;;;7.70;2.25;;;14.70;99.90;;;;;;5045757;28;20136;-56
2022/05/26 07:06:50;;;;;;;11.85;2.10;;;14.80;99.90;;;;;;5045296;28;20055;-57
2022/05/26 07:09:17;;;;;;;6.80;1.73;;;14.70;99.90;;;;;;5045290;28;20088;-54
2022/05/26 07:11:44;;;;;;;5.93;2.33;;;14.60;99.90;;;;;;5051769;28;20048;-55
2022/05/26 07:14:12;;;;;;;11.65;1.70;;;14.70;99.90;;;;;;5048003;28;20052;-56
2022/05/26 07:16:39;;;;;;;9.38;2.40;;;14.80;99.90;;;;;;5051025;28;20109;-53
2022/05/26 07:19:06;;;;;;;5.32;1.33;;;14.70;99.90;;;;;;5068869;28;20058;-52
2022/05/26 07:21:33;;;;;;;8.07;3.17;;;14.70;99.90;;;;;;5070107;28;20088;-56
2022/05/26 07:24:00;;;;;;;10.35;2.78;;;14.80;99.90;;;;;;5053534;28;20088;-52
2022/05/26 07:26:28;;;;;;;8.52;2.03;;;14.80;99.90;;;;;;5049871;28;20076;-54
2022/05/26 07:28:55;;;;;;;6.05;1.65;;;14.80;99.90;;;;;;5049966;28;20041;-57
2022/05/26 07:31:22;;;;;;;7.40;1.42;;;14.90;99.90;;;;;;5049770;28;20057;-54
2022/05/26 07:33:49;;;;;;;10.20;2.10;;;14.90;99.90;;;;;;5048858;28;20041;-56
2022/05/26 07:41:47;;;;;;;18.05;2.53;;;15.10;99.90;;;;;;5049901;28;20052;-57
2022/05/26 07:44:14;;;;;;;5.50;1.98;;;15.20;99.90;;;;;;5049482;28;20141;-56
2022/05/26 07:46:41;;;;;;;9.18;2.20;;;15.20;99.90;;;;;;5047729;28;20080;-55
2022/05/26 07:49:08;;;;;;;6.50;1.75;;;15.10;99.90;;;;;;5049798;28;20044;-56
2022/05/26 07:51:35;;;;;;;11.30;1.83;;;15.10;99.90;;;;;;5049428;28;20088;-55
2022/05/26 07:54:02;;;;;;;10.55;3.08;;;15.20;99.90;;;;;;5049181;28;20068;-56
2022/05/26 07:56:31;;;;;;;11.07;1.83;;;15.20;99.90;;;;;;5048992;28;20118;-56
2022/05/26 07:58:58;;;;;;;8.40;2.00;;;15.30;99.90;;;;;;5047792;28;20076;-54
2022/05/26 08:01:24;;;;;;;7.82;1.98;;;15.40;99.90;;;;;;5081495;28;20128;-52
2022/05/26 08:03:53;;;;;;;7.90;1.40;;;15.50;99.90;;;;;;5049626;28;20077;-57
2022/05/26 08:06:20;;;;;;;14.50;1.83;;;15.60;99.90;;;;;;5049464;28;20083;-56
2022/05/26 08:08:47;;;;;;;10.63;1.73;;;15.60;99.90;;;;;;5049219;28;20527;-56
2022/05/26 08:11:13;;;;;;;8.07;2.00;;;15.80;99.90;;;;;;5049290;28;20136;-58
2022/05/26 08:13:40;;;;;;;5.07;1.30;;;15.90;99.90;;;;;;4697955;27;10000182;-53
2022/05/26 08:16:07;;;;;;;6.05;1.70;;;15.90;99.90;;;;;;5047320;28;20139;-57
2022/05/26 08:18:34;;;;;;;8.95;2.53;;;15.90;99.90;;;;;;5049189;28;20515;-56
2022/05/26 08:21:14;;;;;;;5.00;1.83;;;16.00;99.90;;;;;;5049017;28;20056;-55
2022/05/26 08:23:41;;;;;;;8.35;2.17;;;16.10;99.90;;;;;;5049814;28;20103;-54
2022/05/26 08:26:08;;;;;;;6.55;1.45;;;16.10;99.90;;;;;;5049914;28;20057;-56
2022/05/26 08:28:35;;;;;;;7.60;1.42;;;16.10;99.90;;;;;;5049589;28;20103;-56
2022/05/26 08:31:02;;;;;;;8.63;1.67;;;16.00;99.90;;;;;;5048562;28;20516;-56
2022/05/26 08:33:29;;;;;;;6.05;1.67;;;16.00;99.90;;;;;;5049794;28;20180;-56
2022/05/26 08:36:16;;;;;;;9.07;2.33;;;15.90;99.90;;;;;;5048851;28;20045;-56
2022/05/26 08:38:44;;;;;;;7.03;2.05;;;16.00;99.90;;;;;;5041294;28;20076;-57
2022/05/26 08:41:33;;;;;;;7.45;1.75;;;16.10;99.90;;;;;;5049092;28;20092;-56
2022/05/26 08:44:25;;;;;;;8.13;1.60;;;16.00;99.90;;;;;;5048852;28;20041;-54
2022/05/26 08:47:01;;;;;;;8.73;1.50;;;16.00;99.90;;;;;;5049232;28;20079;-54
2022/05/26 08:49:38;;;;;;;12.85;1.77;;;16.00;99.90;;;;;;5047981;28;20076;-53
2022/05/26 08:52:15;;;;;;;7.95;1.70;;;16.10;99.90;;;;;;5048012;28;20049;-55
2022/05/26 08:54:47;;;;;;;5.78;1.08;;;16.10;99.90;;;;;;5048956;28;20128;-56
2022/05/26 08:57:16;;;;;;;4.80;1.40;;;16.20;99.90;;;;;;5039621;28;20144;-52
2022/05/26 08:59:44;;;;;;;8.48;1.60;;;16.40;99.90;;;;;;5049010;28;20095;-56
2022/05/26 09:02:33;;;;;;;8.77;1.70;;;16.20;99.90;;;;;;5049078;28;20393;-53
2022/05/26 09:05:13;;;;;;;8.35;1.42;;;16.20;99.90;;;;;;5048999;28;20052;-54
2022/05/26 09:13:41;;;;;;;9.38;1.27;;;16.70;99.90;;;;;;5048054;28;20527;-54
2022/05/26 09:16:08;;;;;;;9.15;2.42;;;16.80;99.90;;;;;;5049204;28;20084;-55
2022/05/26 09:18:35;;;;;;;6.13;2.08;;;16.80;99.90;;;;;;5048738;28;20057;-54
2022/05/26 09:21:34;;;;;;;5.60;1.25;;;17.00;99.90;;;;;;5048680;28;20057;-55
2022/05/26 09:24:39;;;;;;;9.27;1.92;;;17.00;99.90;;;;;;5015229;28;20041;-54
2022/05/26 09:27:07;;;;;;;;;;;17.10;99.90;;;;;;4976047;28;20676;-55
2022/05/26 09:29:37;;;;;;;6.30;1.50;;;16.90;99.90;;;;;;5022862;28;19956;-54
2022/05/26 09:32:04;;;;;;;7.80;2.90;;;16.90;99.90;;;;;;5047551;28;20087;-56
2022/05/26 09:35:18;;;;;;;4.57;1.30;;;16.90;99.90;;;;;;5048607;28;20052;-56
2022/05/26 09:37:56;;;;;;;8.65;1.98;;;16.90;99.90;;;;;;5048608;28;20080;-56
2022/05/26 09:40:35;;;;;;;4.97;1.92;;;16.90;99.90;;;;;;5048004;28;20641;-54
2022/05/26 09:43:04;;;;;;;4.45;1.85;;;17.00;99.90;;;;;;5048219;28;20084;-56
2022/05/26 09:45:44;;;;;;;7.07;2.08;;;17.10;99.90;;;;;;5047535;28;20041;-55
2022/05/26 09:48:45;;;;;;;5.53;1.10;;;17.10;99.90;;;;;;5030191;28;20099;-57
2022/05/26 09:51:24;;;;;;;5.88;1.05;;;17.20;99.90;;;;;;5045732;28;20052;-56
2022/05/26 09:53:53;;;;;;;8.70;1.45;;;17.20;99.90;;;;;;5048196;28;20045;-55
2022/05/26 09:56:31;;;;;;;4.22;1.30;;;17.20;99.90;;;;;;5047617;28;20234;-53
2022/05/26 09:58:58;;;;;;;8.07;1.52;;;17.10;99.90;;;;;;5047884;28;20079;-54
2022/05/26 10:01:27;;;;;;;8.65;1.45;;;17.20;99.90;;;;;;5047986;28;20088;-54
2022/05/26 10:04:24;;;;;;;9.07;1.15;;;17.30;99.90;;;;;;5047808;28;20083;-54
2022/05/26 10:07:29;;;;;;;8.15;1.65;;;17.40;99.90;;;;;;5034618;28;20936;-51
2022/05/26 10:10:02;;;;;;;5.35;1.60;;;17.30;99.90;;;;;;4990986;28;20099;-55
2022/05/26 10:12:54;;;;;;;6.65;1.73;;;17.40;99.90;;;;;;5047674;28;20084;-56
2022/05/26 10:15:49;;;;;;;7.55;1.35;;;17.40;99.90;;;;;;5047676;28;20084;-55
2022/05/26 10:18:25;;;;;;;5.57;1.00;;;17.50;99.90;;;;;;5046618;28;20468;-55
2022/05/26 10:20:55;;;;;;;6.53;1.52;;;17.50;99.90;;;;;;5047767;28;20484;-55
2022/05/26 10:23:31;;;;;;;2.90;1.13;;;17.50;99.90;;;;;;5047690;28;20136;-56
2022/05/26 10:26:16;;;;;;;6.35;1.33;;;17.40;99.90;;;;;;5047748;28;20106;-54
2022/05/26 10:29:09;;;;;;;10.77;1.38;;;17.30;99.90;;;;;;5047695;28;20128;-52
2022/05/26 10:31:58;;;;;;;5.90;1.40;;;17.30;99.90;;;;;;5045854;28;20087;-55
2022/05/26 10:34:41;;;;;;;5.47;1.33;;;17.40;99.90;;;;;;5046936;28;20041;-54
2022/05/26 10:37:16;;;;;;;5.50;1.45;;;17.40;99.90;;;;;;5045599;28;20084;-54
2022/05/26 10:40:05;;;;;;;10.40;1.98;;;17.40;99.90;;;;;;5046648;28;20045;-55
2022/05/26 10:42:38;;;;;;;2.83;1.13;;;17.40;99.90;;;;;;5047527;28;20061;-54
2022/05/26 10:45:17;;;;;;;9.90;1.92;;;17.50;99.90;;;;;;5042126;28;20084;-54
2022/05/26 10:48:14;;;;;;;9.63;2.53;;;17.60;99.90;;;;;;4695185;28;10000296;-52
2022/05/26 10:50:53;;;;;;;4.63;1.30;;;17.60;99.90;;;;;;5042593;28;20060;-55
2022/05/26 10:53:45;;;;;;;6.15;1.30;;;17.90;99.90;;;;;;5043933;28;20440;-54
2022/05/26 10:56:39;;;;;;;5.05;1.40;;;17.90;99.90;;;;;;5044945;28;20140;-55
2022/05/26 10:59:43;;;;;;;4.70;0.98;;;18.10;99.90;;;;;;5046187;28;20057;-54
2022/05/26 11:02:22;;;;;;;3.55;1.23;;;18.20;99.90;;;;;;5045403;28;20080;-55
2022/05/26 11:05:04;;;;;;;9.70;2.65;;;18.10;99.90;;;;;;5046073;28;20060;-56
2022/05/26 11:07:38;;;;;;;8.35;1.35;;;18.20;99.90;;;;;;5046393;28;20084;-55
2022/05/26 11:10:14;;;;;;;10.05;1.00;;;18.20;99.90;;;;;;5046000;28;20479;-55
2022/05/26 11:13:00;;;;;;;9.73;1.45;;;18.20;99.90;;;;;;5046308;28;20092;-57
2022/05/26 11:18:19;;;;;;;3.63;1.05;;;18.50;99.90;;;;;;5047283;28;20103;-58
2022/05/26 11:20:53;;;;;;;6.32;1.70;;;18.50;99.90;;;;;;5046527;28;20103;-56
2022/05/26 11:23:21;;;;;;;3.67;1.27;;;18.60;99.90;;;;;;5045666;28;20541;-55
2022/05/26 11:25:50;;;;;;;7.22;1.75;;;18.80;99.90;;;;;;5045686;28;20045;-56
2022/05/26 11:28:40;;;;;;;2.72;0.75;;;18.70;99.90;;;;;;5046095;28;20131;-55
2022/05/26 11:37:15;;;;;;;7.75;1.58;;;18.80;99.90;;;;;;5044987;28;20045;-53
2022/05/26 11:39:42;;;;;;;4.20;1.10;;;18.80;99.90;;;;;;5023022;28;20057;-57
2022/05/26 11:42:12;;;;;;;4.50;1.00;;;18.70;99.90;;;;;;5043600;28;20083;-57
2022/05/26 11:44:44;;;;;;;3.22;1.10;;;18.70;99.90;;;;;;5046562;28;20088;-57
2022/05/26 11:47:31;;;;;;;3.78;0.93;;;18.70;99.90;;;;;;5044774;28;20091;-56
2022/05/26 11:49:58;;;;;;;2.45;0.90;;;18.80;99.90;;;;;;5046531;28;20052;-55
2022/05/26 11:52:40;;;;;;;5.43;1.00;;;19.00;99.90;;;;;;5045462;28;20087;-56
2022/05/26 11:55:16;;;;;;;4.15;1.33;;;19.00;99.90;;;;;;5045884;28;20087;-58
2022/05/26 11:57:43;;;;;;;4.65;1.02;;;19.20;99.90;;;;;;5044572;28;20049;-56
2022/05/26 12:00:18;;;;;;;3.50;0.95;;;19.30;99.90;;;;;;5045807;28;20041;-55
2022/05/26 12:03:25;;;;;;;2.75;0.60;;;19.30;99.90;;;;;;5044438;28;20155;-57
2022/05/26 12:06:12;;;;;;;3.22;1.30;;;19.20;99.90;;;;;;5045081;28;20094;-55
2022/05/26 12:08:53;;;;;;;4.15;0.90;;;19.10;99.90;;;;;;5056284;28;20597;-56
2022/05/26 12:11:46;;;;;;;4.57;1.10;;;19.10;99.90;;;;;;5045538;28;20064;-57
2022/05/26 12:14:42;;;;;;;5.60;0.82;;;19.30;99.90;;;;;;5048909;28;20148;-56
2022/05/26 12:17:33;;;;;;;1.15;0.88;;;19.40;99.90;;;;;;5045062;28;20052;-53
2022/05/26 12:20:25;;;;;;;2.75;1.13;;;19.40;99.90;;;;;;5048600;28;20049;-59
2022/05/26 12:22:52;;;;;;;3.53;0.75;;;19.40;99.90;;;;;;5047792;28;20049;-54
2022/05/26 12:25:27;;;;;;;3.38;0.73;;;19.50;99.90;;;;;;5049912;28;20056;-54
2022/05/26 12:28:15;;;;;;;4.25;1.90;;;19.60;99.90;;;;;;5049859;28;20049;-57
2022/05/26 12:30:45;;;;;;;4.63;1.05;;;19.40;99.90;;;;;;5048658;28;20052;-55
2022/05/26 12:33:21;;;;;;;6.53;1.40;;;19.50;99.90;;;;;;5047293;28;20136;-57
2022/05/26 12:35:52;;;;;;;2.17;0.80;;;19.50;99.90;;;;;;5047448;28;20046;-56
2022/05/26 12:38:40;;;;;;;4.63;0.85;;;19.60;99.90;;;;;;5054585;28;20080;-57
2022/05/26 12:41:11;;;;;;;4.75;1.30;;;19.80;99.90;;;;;;5049513;28;20170;-56
2022/05/26 12:44:13;;;;;;;2.75;0.60;;;19.70;99.90;;;;;;5046332;28;20045;-55
2022/05/26 12:46:59;;;;;;;5.20;0.77;;;19.60;99.90;;;;;;5047360;28;20081;-55
2022/05/26 12:49:47;;;;;;;5.78;3.38;;;19.60;99.90;;;;;;5046270;28;20053;-54
2022/05/26 12:52:17;;;;;;;4.82;1.27;;;19.50;99.90;;;;;;5047564;28;20049;-52
2022/05/26 12:54:48;;;;;;;1.63;0.88;;;19.70;99.90;;;;;;5049136;28;20084;-56
2022/05/26 12:57:20;;;;;;;4.88;1.23;;;19.70;99.90;;;;;;5047910;28;20044;-55
2022/05/26 12:59:47;;;;;;;3.47;1.00;;;19.50;99.90;;;;;;5047843;28;20083;-53
2022/05/26 13:02:14;;;;;;;4.32;1.17;;;19.60;99.90;;;;;;5049445;28;20049;-53
2022/05/26 13:04:41;;;;;;;2.80;0.82;;;19.50;99.90;;;;;;5047611;28;20048;-53
2022/05/26 13:07:08;;;;;;;4.85;0.90;;;19.50;99.90;;;;;;5048833;28;20539;-57
2022/05/26 13:09:46;;;;;;;4.72;0.90;;;19.50;99.90;;;;;;5048798;28;20045;-55
2022/05/26 13:12:18;;;;;;;3.63;0.93;;;19.50;99.90;;;;;;5047880;28;20088;-57
2022/05/26 13:14:52;;;;;;;1.55;0.73;;;19.50;99.90;;;;;;5048868;28;20087;-57
2022/05/26 13:17:25;;;;;;;1.52;0.52;;;19.50;99.90;;;;;;5047236;28;20084;-60
2022/05/26 13:19:56;;;;;;;2.78;0.88;;;19.60;99.90;;;;;;5048822;28;20111;-54
2022/05/26 13:22:30;;;;;;;2.72;1.10;;;19.60;99.90;;;;;;5048512;28;20084;-57
2022/05/26 13:24:58;;;;;;;;;;;19.80;99.90;;;;;;5048383;28;20041;-58
2022/05/26 13:27:26;;;;;;;3.70;1.23;;;19.70;99.90;;;;;;5048562;28;19974;-56
2022/05/26 13:29:53;;;;;;;10.75;1.45;;;19.90;99.90;;;;;;5047528;28;20085;-57
2022/05/26 13:35:18;;;;;;;3.20;0.85;;;20.00;99.90;;;;;;5047235;28;20132;-56
2022/05/26 13:37:44;;;;;;;2.63;1.00;;;19.90;99.90;;;;;;5047528;28;20091;-56
2022/05/26 13:40:17;;;;;;;7.53;1.13;;;20.00;99.90;;;;;;5048301;28;20049;-56
2022/05/26 13:42:46;;;;;;;3.53;0.70;;;20.20;99.90;;;;;;5047146;28;20140;-56
2022/05/26 13:45:23;;;;;;;4.07;1.08;;;20.30;99.90;;;;;;5048326;28;20044;-56
2022/05/26 13:47:51;;;;;;;6.80;0.98;;;20.50;99.90;;;;;;5048157;28;20084;-57
2022/05/26 13:50:28;;;;;;;1.85;0.95;;;20.60;99.90;;;;;;5046895;28;20132;-56
2022/05/26 13:52:55;;;;;;;2.55;0.82;;;20.80;99.40;;;;;;5048151;28;20084;-54
2022/05/26 13:55:23;;;;;;;3.28;0.77;;;21.10;99.90;;;;;;5046302;28;20082;-54
2022/05/26 13:57:51;;;;;;;2.70;0.82;;;20.80;99.20;;;;;;5046779;28;20135;-56